createdAt,value
2018-02-22T00:01:50.476Z,-1.00
2018-02-22T00:04:16.676Z,-1.00
2018-02-22T00:06:42.942Z,-1.20
2018-02-22T00:09:09.155Z,-1.20
2018-02-22T00:11:35.330Z,-1.10
2018-02-22T00:14:01.596Z,-1.10
2018-02-22T00:16:27.795Z,-1.10
2018-02-22T00:19:01.141Z,-1.10
2018-02-22T00:21:27.346Z,-1.20
2018-02-22T00:23:53.901Z,-1.20
2018-02-22T00:26:20.109Z,-1.30
2018-02-22T00:28:46.299Z,-1.20
2018-02-22T00:31:12.831Z,-1.20
2018-02-22T00:33:39.039Z,-1.30
2018-02-22T00:36:05.271Z,-1.20
2018-02-22T00:38:31.957Z,-1.40
2018-02-22T00:40:58.213Z,-1.40
2018-02-22T00:43:24.395Z,-1.30
2018-02-22T00:45:50.629Z,-1.20
2018-02-22T00:48:16.866Z,-1.20
2018-02-22T00:50:43.454Z,-1.30
2018-02-22T00:53:10.028Z,-1.00
2018-02-22T00:55:36.257Z,-1.00
2018-02-22T00:58:02.540Z,-0.90
2018-02-22T01:00:29.180Z,-1.10
2018-02-22T01:02:55.409Z,-1.10
2018-02-22T01:05:22.048Z,-0.90
2018-02-22T01:07:48.643Z,-0.80
2018-02-22T01:10:14.818Z,-0.80
2018-02-22T01:12:42.130Z,-0.90
2018-02-22T01:15:08.393Z,-0.90
2018-02-22T01:17:34.573Z,-0.80
2018-02-22T01:20:00.811Z,-0.90
2018-02-22T01:22:27.015Z,-0.90
2018-02-22T01:24:53.200Z,-1.00
2018-02-22T01:27:20.081Z,-1.00
2018-02-22T01:29:46.289Z,-1.00
2018-02-22T01:32:12.896Z,-0.90
2018-02-22T01:34:39.110Z,-0.90
2018-02-22T01:37:05.333Z,-0.70
2018-02-22T01:39:31.543Z,-0.80
2018-02-22T01:41:57.816Z,-0.90
2018-02-22T01:44:24.007Z,-1.00
2018-02-22T01:46:50.195Z,-1.00
2018-02-22T01:49:16.431Z,-1.00
2018-02-22T01:51:42.647Z,-1.10
2018-02-22T01:54:08.881Z,-1.10
2018-02-22T01:56:35.200Z,-1.00
2018-02-22T01:59:01.913Z,-1.00
2018-02-22T02:01:28.175Z,-1.10
2018-02-22T02:03:54.673Z,-1.10
2018-02-22T02:06:20.860Z,-1.10
2018-02-22T02:08:47.047Z,-1.10
2018-02-22T02:11:13.285Z,-1.10
2018-02-22T02:13:39.467Z,-1.20
2018-02-22T02:16:05.681Z,-1.10
2018-02-22T02:18:31.866Z,-1.10
2018-02-22T02:20:58.459Z,-1.10
2018-02-22T02:23:24.664Z,-1.00
2018-02-22T02:25:50.854Z,-1.10
2018-02-22T02:28:17.484Z,-1.00
2018-02-22T02:30:44.195Z,-1.20
2018-02-22T02:33:10.393Z,-1.20
2018-02-22T02:35:36.630Z,-1.20
2018-02-22T02:38:03.352Z,-1.20
2018-02-22T02:40:29.609Z,-1.20
2018-02-22T02:42:55.844Z,-1.30
2018-02-22T02:45:22.127Z,-1.10
2018-02-22T02:47:48.381Z,-1.00
2018-02-22T02:50:14.605Z,-1.00
2018-02-22T02:52:40.970Z,-1.10
2018-02-22T02:55:07.193Z,-1.30
2018-02-22T02:57:33.359Z,-1.30
2018-02-22T03:00:00.161Z,-1.10
2018-02-22T03:02:26.390Z,-1.10
2018-02-22T03:04:52.620Z,-1.10
2018-02-22T03:07:18.811Z,-1.20
2018-02-22T03:09:45.021Z,-1.20
2018-02-22T03:12:11.297Z,-1.20
2018-02-22T03:14:37.524Z,-1.30
2018-02-22T03:17:03.830Z,-1.40
2018-02-22T03:19:30.065Z,-1.50
2018-02-22T03:21:56.291Z,-1.40
2018-02-22T03:24:22.613Z,-1.50
2018-02-22T03:26:48.807Z,-1.40
2018-02-22T03:29:15.384Z,-1.40
2018-02-22T03:31:42.234Z,-1.40
2018-02-22T03:34:08.444Z,-1.50
2018-02-22T03:36:34.625Z,-1.60
2018-02-22T03:39:00.851Z,-1.60
2018-02-22T03:41:27.082Z,-1.60
2018-02-22T03:43:53.394Z,-1.70
2018-02-22T03:46:19.589Z,-1.70
2018-02-22T03:48:45.787Z,-1.90
2018-02-22T03:51:12.373Z,-2.10
2018-02-22T03:53:38.587Z,-2.10
2018-02-22T03:56:05.184Z,-2.10
2018-02-22T03:58:31.753Z,-1.90
2018-02-22T04:00:57.968Z,-1.90
2018-02-22T04:03:24.233Z,-1.80
2018-02-22T04:05:50.518Z,-1.80
2018-02-22T04:08:17.135Z,-1.70
2018-02-22T04:10:43.729Z,-1.70
2018-02-22T04:13:09.952Z,-1.80
2018-02-22T04:15:36.182Z,-1.80
2018-02-22T04:18:02.500Z,-1.70
2018-02-22T04:20:28.707Z,-1.70
2018-02-22T04:22:55.240Z,-1.60
2018-02-22T04:25:21.501Z,-1.70
2018-02-22T04:27:47.744Z,-1.70
2018-02-22T04:30:14.060Z,-1.70
2018-02-22T04:32:40.256Z,-1.70
2018-02-22T04:35:06.539Z,-1.70
2018-02-22T04:37:32.747Z,-1.60
2018-02-22T04:39:59.083Z,-1.50
2018-02-22T04:42:25.288Z,-1.40
2018-02-22T04:44:51.603Z,-1.40
2018-02-22T04:47:17.822Z,-1.30
2018-02-22T04:49:44.037Z,-1.40
2018-02-22T04:52:11.216Z,-1.30
2018-02-22T04:54:37.503Z,-1.40
2018-02-22T04:57:03.708Z,-1.50
2018-02-22T04:59:29.972Z,-1.40
2018-02-22T05:01:56.382Z,-1.40
2018-02-22T05:04:22.586Z,-1.20
2018-02-22T05:06:48.786Z,-1.10
2018-02-22T05:09:15.258Z,-1.10
2018-02-22T05:11:41.516Z,-1.30
2018-02-22T05:14:07.725Z,-1.20
2018-02-22T05:16:33.965Z,-1.20
2018-02-22T05:19:00.248Z,-1.10
2018-02-22T05:21:26.542Z,-1.00
2018-02-22T05:23:52.776Z,-1.00
2018-02-22T05:26:19.005Z,-1.00
2018-02-22T05:28:45.213Z,-1.00
2018-02-22T05:31:11.804Z,-0.80
2018-02-22T05:33:38.020Z,-0.80
2018-02-22T05:36:04.211Z,-0.70
2018-02-22T05:38:30.798Z,-0.60
2018-02-22T05:40:57.077Z,-0.60
2018-02-22T05:43:23.698Z,-0.50
2018-02-22T05:45:49.952Z,-0.50
2018-02-22T05:48:16.851Z,-0.50
2018-02-22T05:50:43.133Z,-0.50
2018-02-22T05:53:09.335Z,-0.40
2018-02-22T05:55:36.044Z,-0.40
2018-02-22T05:58:02.297Z,-0.50
2018-02-22T06:00:28.595Z,-0.30
2018-02-22T06:02:54.849Z,-0.30
2018-02-22T06:05:21.488Z,-0.30
2018-02-22T06:07:48.018Z,-0.30
2018-02-22T06:10:14.331Z,-0.30
2018-02-22T06:12:40.669Z,-0.30
2018-02-22T06:15:06.942Z,-0.40
2018-02-22T06:17:33.141Z,-0.40
2018-02-22T06:19:59.370Z,-0.40
2018-02-22T06:22:25.590Z,-0.40
2018-02-22T06:24:51.801Z,-0.30
2018-02-22T06:27:17.988Z,-0.30
2018-02-22T06:29:44.576Z,-0.20
2018-02-22T06:32:11.462Z,-0.20
2018-02-22T06:34:37.687Z,-0.20
2018-02-22T06:37:03.965Z,-0.20
2018-02-22T06:39:30.188Z,-0.30
2018-02-22T06:41:56.416Z,-0.30
2018-02-22T06:44:22.654Z,-0.30
2018-02-22T06:46:48.865Z,-0.30
2018-02-22T06:49:15.078Z,-0.30
2018-02-22T06:51:41.366Z,-0.40
2018-02-22T06:54:07.562Z,-0.30
2018-02-22T06:56:33.778Z,-0.40
2018-02-22T06:59:00.378Z,-0.40
2018-02-22T07:01:26.617Z,-0.40
2018-02-22T07:03:52.826Z,-0.30
2018-02-22T07:06:19.084Z,-0.40
2018-02-22T07:08:45.317Z,-0.30
2018-02-22T07:11:11.731Z,-0.40
2018-02-22T07:13:37.952Z,-0.30
2018-02-22T07:16:04.166Z,-0.20
2018-02-22T07:18:30.742Z,-0.10
2018-02-22T07:20:57.009Z,-0.10
2018-02-22T07:23:23.285Z,-0.10
2018-02-22T07:25:49.518Z,-0.10
2018-02-22T07:28:15.768Z,-0.10
2018-02-22T07:30:42.031Z,0.00
2018-02-22T07:33:08.264Z,0.10
2018-02-22T07:35:35.191Z,0.10
2018-02-22T07:38:01.408Z,0.10
2018-02-22T07:40:27.665Z,0.00
2018-02-22T07:42:54.347Z,0.00
2018-02-22T07:45:20.579Z,0.10
2018-02-22T07:47:46.807Z,0.00
2018-02-22T07:50:13.023Z,0.30
2018-02-22T07:52:39.548Z,0.30
2018-02-22T07:55:05.752Z,0.40
2018-02-22T07:57:32.042Z,0.40
2018-02-22T07:59:58.267Z,0.40
2018-02-22T08:02:24.524Z,0.30
2018-02-22T08:04:50.727Z,0.30
2018-02-22T08:07:16.979Z,0.50
2018-02-22T08:09:43.335Z,0.40
2018-02-22T08:12:09.661Z,0.50
2018-02-22T08:14:36.265Z,0.80
2018-02-22T08:17:02.438Z,0.80
2018-02-22T08:19:28.626Z,1.00
2018-02-22T08:21:54.875Z,1.00
2018-02-22T08:24:21.081Z,1.10
2018-02-22T08:26:47.351Z,1.10
2018-02-22T08:29:14.051Z,1.20
2018-02-22T08:31:40.267Z,1.20
2018-02-22T08:34:06.567Z,1.30
2018-02-22T08:36:32.787Z,1.20
2018-02-22T08:38:58.989Z,1.30
2018-02-22T08:41:25.560Z,1.50
2018-02-22T08:43:51.891Z,1.40
2018-02-22T08:46:18.114Z,1.50
2018-02-22T08:48:44.322Z,1.50
2018-02-22T08:51:10.562Z,1.50
2018-02-22T08:53:36.754Z,1.60
2018-02-22T08:56:02.985Z,1.50
2018-02-22T08:58:29.538Z,1.80
2018-02-22T09:00:55.784Z,1.80
2018-02-22T09:03:22.002Z,1.80
2018-02-22T09:05:48.275Z,2.00
2018-02-22T09:08:14.532Z,2.20
2018-02-22T09:10:41.299Z,2.10
2018-02-22T09:13:07.538Z,2.10
2018-02-22T09:15:33.808Z,2.10
2018-02-22T09:18:00.064Z,2.20
2018-02-22T09:20:26.693Z,2.30
2018-02-22T09:22:52.972Z,2.30
2018-02-22T09:25:19.155Z,2.40
2018-02-22T09:27:45.752Z,2.70
2018-02-22T09:30:12.057Z,2.70
2018-02-22T09:32:38.270Z,2.80
2018-02-22T09:35:04.957Z,3.10
2018-02-22T09:37:31.154Z,3.10
2018-02-22T09:39:57.423Z,3.20
2018-02-22T09:42:23.725Z,3.30
2018-02-22T09:44:49.942Z,3.30
2018-02-22T09:47:16.253Z,3.50
2018-02-22T09:49:42.498Z,3.70
2018-02-22T09:52:08.776Z,3.60
2018-02-22T09:54:35.020Z,3.50
2018-02-22T09:57:01.343Z,3.30
2018-02-22T09:59:27.555Z,3.30
2018-02-22T10:01:53.779Z,3.50
2018-02-22T10:04:19.971Z,3.50
2018-02-22T10:06:46.200Z,3.40
2018-02-22T10:09:12.449Z,3.30
2018-02-22T10:11:38.749Z,3.30
2018-02-22T10:14:04.951Z,3.30
2018-02-22T10:16:31.564Z,3.50
2018-02-22T10:18:57.858Z,3.50
2018-02-22T10:21:24.088Z,3.60
2018-02-22T10:23:50.274Z,3.40
2018-02-22T10:26:16.916Z,3.30
2018-02-22T10:28:43.223Z,3.30
2018-02-22T10:31:09.866Z,3.30
2018-02-22T10:33:36.084Z,3.30
2018-02-22T10:36:02.378Z,3.30
2018-02-22T10:38:28.580Z,3.10
2018-02-22T10:40:54.824Z,3.20
2018-02-22T10:43:21.025Z,3.20
2018-02-22T10:45:47.242Z,3.20
2018-02-22T10:48:14.018Z,3.10
2018-02-22T10:50:40.272Z,3.10
2018-02-22T10:53:06.592Z,3.10
2018-02-22T10:55:32.791Z,3.10
2018-02-22T10:57:58.999Z,3.10
2018-02-22T11:00:31.334Z,3.30
2018-02-22T11:02:57.624Z,3.30
2018-02-22T11:05:23.871Z,3.30
2018-02-22T11:07:50.113Z,3.30
2018-02-22T11:10:16.359Z,3.30
2018-02-22T11:12:42.611Z,3.30
2018-02-22T11:15:09.261Z,3.70
2018-02-22T11:17:35.454Z,3.70
2018-02-22T11:20:01.707Z,3.90
2018-02-22T11:22:28.386Z,4.10
2018-02-22T11:24:54.630Z,4.10
2018-02-22T11:27:20.886Z,3.90
2018-02-22T11:29:47.472Z,3.70
2018-02-22T11:32:13.823Z,3.70
2018-02-22T11:34:40.049Z,3.50
2018-02-22T11:37:06.299Z,3.60
2018-02-22T11:39:32.539Z,3.80
2018-02-22T11:41:58.733Z,3.90
2018-02-22T11:44:24.943Z,3.90
2018-02-22T11:46:51.171Z,3.90
2018-02-22T11:49:17.452Z,3.80
2018-02-22T11:51:43.872Z,3.80
2018-02-22T11:54:10.116Z,3.90
2018-02-22T11:56:36.358Z,4.00
2018-02-22T11:59:02.631Z,3.70
2018-02-22T12:01:28.832Z,3.60
2018-02-22T12:03:55.042Z,3.60
2018-02-22T12:06:21.302Z,3.70
2018-02-22T12:08:47.554Z,3.70
2018-02-22T12:11:13.877Z,3.80
2018-02-22T12:13:40.197Z,3.60
2018-02-22T12:16:06.826Z,3.60
2018-02-22T12:18:33.077Z,3.50
2018-02-22T12:20:59.298Z,3.50
2018-02-22T12:26:09.632Z,3.60
2018-02-22T12:28:35.884Z,3.70
2018-02-22T12:31:02.145Z,3.80
2018-02-22T12:33:28.356Z,4.00
2018-02-22T12:36:10.690Z,4.10
2018-02-22T12:38:36.964Z,4.10
2018-02-22T12:41:03.552Z,4.50
2018-02-22T12:43:29.820Z,4.50
2018-02-22T12:45:56.080Z,4.80
2018-02-22T12:48:22.433Z,5.00
2018-02-22T12:50:48.678Z,5.00
2018-02-22T12:53:14.903Z,5.20
2018-02-22T12:55:42.625Z,5.20
2018-02-22T12:58:08.860Z,5.20
2018-02-22T13:00:35.067Z,5.10
2018-02-22T13:03:01.313Z,5.10
2018-02-22T13:05:27.572Z,5.10
2018-02-22T13:07:53.800Z,4.90
2018-02-22T13:10:20.081Z,4.90
2018-02-22T13:12:46.328Z,4.90
2018-02-22T13:15:12.561Z,4.70
2018-02-22T13:17:38.840Z,4.80
2018-02-22T13:20:05.461Z,4.70
2018-02-22T13:22:31.744Z,4.70
2018-02-22T13:24:57.987Z,4.60
2018-02-22T13:27:24.244Z,4.50
2018-02-22T13:29:50.474Z,4.60
2018-02-22T13:32:16.704Z,4.60
2018-02-22T13:34:42.962Z,4.50
2018-02-22T13:37:21.391Z,4.10
2018-02-22T13:39:47.972Z,4.00
2018-02-22T13:42:14.592Z,4.30
2018-02-22T13:44:53.383Z,4.50
2018-02-22T13:47:19.576Z,4.50
2018-02-22T13:49:58.663Z,4.70
2018-02-22T13:52:26.181Z,4.70
2018-02-22T13:54:52.967Z,4.70
2018-02-22T13:57:19.240Z,4.70
2018-02-22T13:59:45.976Z,4.70
2018-02-22T14:02:24.977Z,4.70
2018-02-22T14:04:51.330Z,4.90
2018-02-22T14:07:17.620Z,4.90
2018-02-22T14:09:43.936Z,4.80
2018-02-22T14:12:10.134Z,4.60
2018-02-22T14:14:36.440Z,4.50
2018-02-22T14:17:02.671Z,4.50
2018-02-22T14:19:28.941Z,4.60
2018-02-22T14:21:55.226Z,4.50
2018-02-22T14:24:21.510Z,4.40
2018-02-22T14:26:47.838Z,4.60
2018-02-22T14:29:14.101Z,4.70
2018-02-22T14:31:40.483Z,4.90
2018-02-22T14:34:06.686Z,4.80
2018-02-22T14:36:32.944Z,4.60
2018-02-22T14:38:59.285Z,4.40
2018-02-22T14:41:25.644Z,4.30
2018-02-22T14:43:51.960Z,4.30
2018-02-22T14:46:18.368Z,4.30
2018-02-22T14:48:44.563Z,4.40
2018-02-22T14:51:11.309Z,4.20
2018-02-22T14:53:37.660Z,4.20
2018-02-22T14:56:03.861Z,4.10
2018-02-22T14:58:30.446Z,4.10
2018-02-22T15:01:02.699Z,4.10
2018-02-22T15:03:28.954Z,4.00
2018-02-22T15:05:55.184Z,3.80
2018-02-22T15:08:21.438Z,3.80
2018-02-22T15:10:47.696Z,3.80
2018-02-22T15:13:13.944Z,3.90
2018-02-22T15:15:40.185Z,3.90
2018-02-22T15:18:06.368Z,3.80
2018-02-22T15:20:32.967Z,3.70
2018-02-22T15:22:59.224Z,3.70
2018-02-22T15:25:25.463Z,3.60
2018-02-22T15:27:51.739Z,3.60
2018-02-22T15:30:18.022Z,3.70
2018-02-22T15:32:44.247Z,3.70
2018-02-22T15:35:10.883Z,3.60
2018-02-22T15:37:37.494Z,3.60
2018-02-22T15:40:03.730Z,3.60
2018-02-22T15:42:29.948Z,3.60
2018-02-22T15:44:56.254Z,3.50
2018-02-22T15:47:22.496Z,3.60
2018-02-22T15:49:48.741Z,3.40
2018-02-22T15:52:14.996Z,3.40
2018-02-22T15:54:41.370Z,3.40
2018-02-22T15:57:07.626Z,3.50
2018-02-22T15:59:33.857Z,3.40
2018-02-22T16:02:00.139Z,3.30
2018-02-22T16:04:26.353Z,3.40
2018-02-22T16:06:53.046Z,3.40
2018-02-22T16:09:19.266Z,3.40
2018-02-22T16:11:45.478Z,3.40
2018-02-22T16:14:11.785Z,3.40
2018-02-22T16:16:38.004Z,3.40
2018-02-22T16:19:04.253Z,3.20
2018-02-22T16:21:30.513Z,3.30
2018-02-22T16:23:56.815Z,3.20
2018-02-22T16:26:23.077Z,3.30
2018-02-22T16:28:49.299Z,3.30
2018-02-22T16:31:15.508Z,3.20
2018-02-22T16:33:42.006Z,3.10
2018-02-22T16:36:08.277Z,3.10
2018-02-22T16:38:34.562Z,3.10
2018-02-22T16:41:00.824Z,3.20
2018-02-22T16:43:27.116Z,3.00
2018-02-22T16:45:53.362Z,3.00
2018-02-22T16:48:19.624Z,3.00
2018-02-22T16:50:45.956Z,2.90
2018-02-22T16:53:12.798Z,3.00
2018-02-22T16:55:39.033Z,2.80
2018-02-22T16:58:05.429Z,2.70
2018-02-22T17:00:31.760Z,2.70
2018-02-22T17:02:58.102Z,2.70
2018-02-22T17:05:24.446Z,2.80
2018-02-22T17:07:50.664Z,2.90
2018-02-22T17:10:16.932Z,2.80
2018-02-22T17:12:43.192Z,2.80
2018-02-22T17:15:09.811Z,2.70
2018-02-22T17:17:44.260Z,2.70
2018-02-22T17:20:10.566Z,2.70
2018-02-22T17:22:36.877Z,2.70
2018-02-22T17:25:03.450Z,2.70
2018-02-22T17:27:35.855Z,2.70
2018-02-22T17:30:08.215Z,2.80
2018-02-22T17:32:34.384Z,2.80
2018-02-22T17:35:00.657Z,2.80
2018-02-22T17:37:26.923Z,2.80
2018-02-22T17:40:01.120Z,2.90
2018-02-22T17:42:28.278Z,2.90
2018-02-22T17:44:54.610Z,2.90
2018-02-22T17:47:20.947Z,3.00
2018-02-22T17:49:47.197Z,3.00
2018-02-22T17:52:13.681Z,2.90
2018-02-22T17:54:39.889Z,3.00
2018-02-22T17:57:06.130Z,2.90
2018-02-22T17:59:32.585Z,2.90
2018-02-22T18:01:58.839Z,2.80
2018-02-22T18:04:25.056Z,2.80
2018-02-22T18:06:51.466Z,2.90
2018-02-22T18:09:17.723Z,2.90
2018-02-22T18:11:44.049Z,2.90
2018-02-22T18:14:10.718Z,2.70
2018-02-22T18:16:37.019Z,2.70
2018-02-22T18:19:03.243Z,2.60
2018-02-22T18:21:29.463Z,2.70
2018-02-22T18:23:55.675Z,2.70
2018-02-22T18:26:21.933Z,2.70
2018-02-22T18:28:48.363Z,2.60
2018-02-22T18:31:14.647Z,2.60
2018-02-22T18:33:40.977Z,2.60
2018-02-22T18:36:07.352Z,2.60
2018-02-22T18:38:39.863Z,2.70
2018-02-22T18:41:06.514Z,2.70
2018-02-22T18:43:39.128Z,2.70
2018-02-22T18:46:05.428Z,2.70
2018-02-22T18:48:31.737Z,2.60
2018-02-22T18:50:58.360Z,2.70
2018-02-22T18:53:24.681Z,2.70
2018-02-22T18:55:51.022Z,2.50
2018-02-22T18:58:17.555Z,2.40
2018-02-22T19:00:43.851Z,2.50
2018-02-22T19:03:10.100Z,2.60
2018-02-22T19:05:36.453Z,2.50
2018-02-22T19:08:02.741Z,2.50
2018-02-22T19:10:29.034Z,2.50
2018-02-22T19:12:55.672Z,2.40
2018-02-22T19:15:22.672Z,2.30
2018-02-22T19:17:48.857Z,2.40
2018-02-22T19:20:15.047Z,2.40
2018-02-22T19:22:41.732Z,2.50
2018-02-22T19:25:08.000Z,2.50
2018-02-22T19:27:34.218Z,2.50
2018-02-22T19:30:00.513Z,2.50
2018-02-22T19:32:26.797Z,2.50
2018-02-22T19:34:53.049Z,2.50
2018-02-22T19:37:19.315Z,2.50
2018-02-22T19:39:45.554Z,2.50
2018-02-22T19:42:11.830Z,2.60
2018-02-22T19:44:38.440Z,2.40
2018-02-22T19:47:04.658Z,2.40
2018-02-22T19:49:31.002Z,2.40
2018-02-22T19:51:57.199Z,2.40
2018-02-22T19:54:23.466Z,2.30
2018-02-22T19:56:49.822Z,2.30
2018-02-22T19:59:16.490Z,2.50
2018-02-22T20:01:42.779Z,2.50
2018-02-22T20:04:09.048Z,2.30
2018-02-22T20:06:35.323Z,2.30
2018-02-22T20:09:01.988Z,2.50
2018-02-22T20:11:29.055Z,2.30
2018-02-22T20:13:55.291Z,2.30
2018-02-22T20:16:21.630Z,2.30
2018-02-22T20:18:47.906Z,2.30
2018-02-22T20:21:14.592Z,2.20
2018-02-22T20:23:40.845Z,2.20
2018-02-22T20:26:07.172Z,2.10
2018-02-22T20:28:33.442Z,2.10
2018-02-22T20:31:00.066Z,2.30
2018-02-22T20:33:26.274Z,2.30
2018-02-22T20:35:52.557Z,2.20
2018-02-22T20:38:18.861Z,2.20
2018-02-22T20:40:45.112Z,2.40
2018-02-22T20:43:11.407Z,2.50
2018-02-22T20:45:37.726Z,2.50
2018-02-22T20:48:04.029Z,2.40
2018-02-22T20:50:30.327Z,2.50
2018-02-22T20:53:01.650Z,2.40
2018-02-22T20:55:28.001Z,2.40
2018-02-22T20:57:54.251Z,2.40
2018-02-22T21:00:20.593Z,2.30
2018-02-22T21:02:46.842Z,2.20
2018-02-22T21:05:13.108Z,2.20
2018-02-22T21:07:40.120Z,2.30
2018-02-22T21:10:06.386Z,2.30
2018-02-22T21:12:32.640Z,2.30
2018-02-22T21:14:59.247Z,2.20
2018-02-22T21:17:25.874Z,2.20
2018-02-22T21:19:52.476Z,2.30
2018-02-22T21:22:18.771Z,2.30
2018-02-22T21:24:45.084Z,2.30
2018-02-22T21:27:11.368Z,2.20
2018-02-22T21:29:37.630Z,2.20
2018-02-22T21:32:04.245Z,2.10
2018-02-22T21:34:30.482Z,2.10
2018-02-22T21:36:56.675Z,2.20
2018-02-22T21:39:22.990Z,2.20
2018-02-22T21:41:49.224Z,2.10
2018-02-22T21:44:15.506Z,2.00
2018-02-22T21:46:41.812Z,2.00
2018-02-22T21:49:08.499Z,2.10
2018-02-22T21:51:34.875Z,2.20
2018-02-22T21:54:01.771Z,2.20
2018-02-22T21:56:28.030Z,2.00
2018-02-22T21:58:54.318Z,2.10
2018-02-22T22:01:20.519Z,2.20
2018-02-22T22:03:46.796Z,2.10
2018-02-22T22:06:13.106Z,2.10
2018-02-22T22:08:39.744Z,2.20
2018-02-22T22:11:06.245Z,2.20
2018-02-22T22:13:32.482Z,2.20
2018-02-22T22:15:58.693Z,2.30
2018-02-22T22:18:24.953Z,2.30
2018-02-22T22:20:51.194Z,2.30
2018-02-22T22:23:17.498Z,2.20
2018-02-22T22:25:43.784Z,2.20
2018-02-22T22:28:10.007Z,2.20
2018-02-22T22:30:36.235Z,2.30
2018-02-22T22:33:02.495Z,2.30
2018-02-22T22:35:28.770Z,2.30
2018-02-22T22:37:55.385Z,2.10
2018-02-22T22:40:21.682Z,2.10
2018-02-22T22:42:47.927Z,2.10
2018-02-22T22:45:14.345Z,2.00
2018-02-22T22:47:40.580Z,2.00
2018-02-22T22:50:06.860Z,2.00
2018-02-22T22:52:33.077Z,2.00
2018-02-22T22:54:59.772Z,1.80
2018-02-22T22:57:26.051Z,1.80
2018-02-22T22:59:52.313Z,1.80
2018-02-22T23:02:18.823Z,1.90
2018-02-22T23:04:45.063Z,2.00
2018-02-22T23:07:11.368Z,2.00
2018-02-22T23:09:37.735Z,1.90
2018-02-22T23:12:03.992Z,1.80
2018-02-22T23:14:30.258Z,1.70
2018-02-22T23:16:56.501Z,1.80
2018-02-22T23:19:22.720Z,1.80
2018-02-22T23:21:48.980Z,1.80
2018-02-22T23:24:15.216Z,1.80
2018-02-22T23:26:41.462Z,1.80
2018-02-22T23:29:07.736Z,1.80
2018-02-22T23:31:34.004Z,1.90
2018-02-22T23:34:00.279Z,1.80
2018-02-22T23:36:26.521Z,1.70
2018-02-22T23:38:52.913Z,1.60
2018-02-22T23:41:24.170Z,1.70
2018-02-22T23:43:50.396Z,1.70
2018-02-22T23:46:16.689Z,1.60
2018-02-22T23:48:42.964Z,1.70
2018-02-22T23:51:09.241Z,1.70
2018-02-22T23:53:35.430Z,1.70
2018-02-22T23:56:01.659Z,1.80
2018-02-22T23:58:27.859Z,1.80
